Time;durP1;ratioP1;P1;durP2;ratioP2;P2;SDS_P1;SDS_P2;PMS_P1;PMS_P2;Temp;Humidity;BMP_temperature;BMP_pressure;BME280_temperature;BME280_humidity;BME280_pressure;Samples;Min_cycle;Max_cycle;Signal;HPM_P1;HPM_P2
2022/03/29 00:00:08;;;;;;;21.73;12.82;;;5.30;1.00;;;5.10;88.23;97857.59;5063690;27;117911;-72
2022/03/29 00:02:43;;;;;;;25.85;12.93;;;5.30;1.00;;;5.11;88.26;97861.84;5061897;27;115756;-71
2022/03/29 00:05:14;;;;;;;24.83;12.95;;;5.30;1.00;;;5.11;88.20;97856.47;5059674;27;129930;-71
2022/03/29 00:07:44;;;;;;;23.67;13.20;;;5.30;1.00;;;5.09;88.30;97864.06;5061296;27;129646;-72
2022/03/29 00:10:12;;;;;;;27.90;12.60;;;5.30;1.00;;;5.04;88.45;97860.41;5061430;27;119336;-71
2022/03/29 00:12:41;;;;;;;21.20;11.43;;;5.30;1.00;;;5.08;88.59;97865.16;5064134;27;114841;-74
2022/03/29 00:15:12;;;;;;;21.67;12.32;;;5.30;1.00;;;5.08;88.63;97867.84;5062716;27;129284;-73
2022/03/29 00:21:43;;;;;;;20.00;11.68;;;5.30;1.00;;;5.15;88.64;97854.72;5061409;27;119476;-71
2022/03/29 00:24:12;;;;;;;21.50;12.80;;;5.30;1.00;;;5.12;88.58;97863.44;5061406;27;115894;-75
2022/03/29 00:26:41;;;;;;;22.38;12.25;;;5.30;1.00;;;5.07;88.57;97858.22;5062272;27;128957;-74
2022/03/29 00:29:09;;;;;;;27.40;12.73;;;5.30;1.00;;;5.12;88.64;97848.06;5062489;27;129247;-73
2022/03/29 00:31:37;;;;;;;25.05;12.48;;;5.30;1.00;;;5.10;88.62;97822.63;5045759;27;118411;-70
2022/03/29 00:34:06;;;;;;;21.48;11.65;;;5.30;1.00;;;5.00;88.44;97818.31;5063117;27;115511;-71
2022/03/29 00:36:35;;;;;;;23.05;13.25;;;5.20;1.00;;;4.90;89.15;97808.69;5059520;27;129534;-70
2022/03/29 00:39:20;;;;;;;23.98;12.80;;;5.10;1.00;;;4.76;89.76;97808.03;5062195;27;129358;-70
2022/03/29 00:41:49;;;;;;;22.73;11.95;;;5.00;1.00;;;4.66;90.15;97820.66;5045931;27;118552;-72
2022/03/29 00:44:18;;;;;;;23.58;12.40;;;5.00;1.00;;;4.66;90.13;97814.50;5063027;27;115168;-70
2022/03/29 00:46:48;;;;;;;20.27;12.07;;;4.90;1.00;;;4.60;90.29;97800.44;5059145;27;129825;-70
2022/03/29 00:49:16;;;;;;;24.25;12.63;;;4.90;1.00;;;4.51;90.59;97802.31;5062450;27;129352;-70
2022/03/29 00:51:45;;;;;;;23.27;12.50;;;4.70;1.00;;;4.47;90.88;97795.97;5060749;27;119589;-70
2022/03/29 00:54:14;;;;;;;24.38;13.27;;;4.70;1.00;;;4.45;91.65;97795.50;5059902;27;115888;-70
2022/03/29 00:56:44;;;;;;;20.20;11.35;;;4.80;1.00;;;4.50;91.56;97795.34;5062373;27;129236;-69
2022/03/29 00:59:13;;;;;;;21.88;12.30;;;4.90;1.00;;;4.50;91.72;97795.34;5060545;27;129209;-69
2022/03/29 01:01:42;;;;;;;26.60;13.23;;;4.80;1.00;;;4.44;92.10;97794.72;5060511;27;119013;-72
2022/03/29 01:04:10;;;;;;;27.38;13.73;;;4.80;1.00;;;4.41;92.14;97802.59;5045943;27;115550;-72
2022/03/29 01:06:39;;;;;;;22.25;12.15;;;4.60;1.00;;;4.32;92.68;97795.31;5062405;27;129775;-70
2022/03/29 01:09:10;;;;;;;22.67;13.18;;;4.60;1.00;;;4.30;93.07;97789.47;5062546;27;129367;-72
2022/03/29 01:11:39;;;;;;;20.75;11.63;;;4.60;1.00;;;4.25;93.25;97778.84;5062679;27;117898;-71
2022/03/29 01:14:10;;;;;;;24.17;13.15;;;4.50;1.00;;;4.23;93.51;97781.06;5079570;27;114896;-70
2022/03/29 01:19:28;;;;;;;23.95;12.95;;;4.40;1.00;;;4.20;93.83;97773.63;5062268;27;128499;-70
2022/03/29 01:21:59;;;;;;;26.23;13.82;;;4.50;1.00;;;4.18;94.11;97783.09;5063855;27;118114;-70
2022/03/29 01:24:29;;;;;;;29.95;13.75;;;4.40;1.00;;;4.19;94.00;97796.22;5045372;27;114565;-68
2022/03/29 01:27:00;;;;;;;30.65;13.98;;;4.50;1.00;;;4.13;93.97;97782.13;5044814;27;128564;-71
2022/03/29 01:29:31;;;;;;;23.08;13.75;;;4.30;1.00;;;4.05;94.39;97782.09;5061882;27;129730;-69
2022/03/29 01:32:02;;;;;;;23.23;13.20;;;4.30;1.00;;;4.02;94.50;97785.41;5060171;27;119486;-70
2022/03/29 01:34:31;;;;;;;25.55;13.27;;;4.20;1.00;;;4.03;95.09;97790.47;5060498;27;116257;-71
2022/03/29 01:37:05;;;;;;;22.77;12.65;;;4.30;1.00;;;4.03;94.58;97793.13;5059801;27;130057;-69
2022/03/29 01:39:34;;;;;;;26.25;13.75;;;4.30;1.00;;;4.02;94.46;97788.09;5062122;27;129680;-72
2022/03/29 01:42:03;;;;;;;22.85;12.77;;;4.10;1.00;;;3.88;94.69;97786.31;5065664;27;118821;-70
2022/03/29 01:44:32;;;;;;;28.98;13.75;;;4.00;1.00;;;3.87;95.29;97790.09;5066161;27;115389;-70
2022/03/29 01:47:00;;;;;;;23.98;13.18;;;4.00;1.00;;;3.81;95.92;97783.25;5063453;27;129875;-70
2022/03/29 01:49:29;;;;;;;23.95;13.90;;;4.00;1.00;;;3.78;96.05;97781.19;5063947;27;129672;-70
2022/03/29 01:51:58;;;;;;;28.73;14.93;;;4.00;1.00;;;3.81;96.62;97780.56;5065622;27;118620;-71
2022/03/29 01:54:28;;;;;;;28.58;15.27;;;4.00;1.00;;;3.76;97.28;97778.03;5063948;27;115649;-71
2022/03/29 01:56:57;;;;;;;27.75;14.25;;;4.10;1.00;;;3.79;97.22;97766.69;5061923;27;129746;-71
2022/03/29 01:59:26;;;;;;;29.02;13.75;;;4.10;1.00;;;3.77;96.88;97772.38;5063398;27;129599;-71
2022/03/29 02:02:14;;;;;;;25.00;14.32;;;4.00;1.00;;;3.75;97.34;97779.91;5047878;27;119145;-70
2022/03/29 02:04:44;;;;;;;25.55;14.43;;;4.00;1.00;;;3.76;97.68;97770.78;5065659;27;115400;-71
2022/03/29 02:07:13;;;;;;;29.35;15.60;;;4.10;1.00;;;3.73;97.58;97770.59;5063160;27;130500;-71
2022/03/29 02:09:42;;;;;;;25.08;14.00;;;4.00;1.00;;;3.73;97.53;97778.66;5065319;27;129263;-70
2022/03/29 02:12:12;;;;;;;25.27;13.77;;;3.90;1.00;;;3.71;97.32;97781.66;5047251;27;118518;-69
2022/03/29 02:14:42;;;;;;;29.55;15.05;;;3.90;1.00;;;3.67;98.02;97785.25;5063282;27;115834;-70
2022/03/29 02:17:10;;;;;;;29.60;14.73;;;3.90;1.00;;;3.63;97.98;97785.09;5062786;27;129824;-71
2022/03/29 02:19:39;;;;;;;31.13;14.40;;;3.90;1.00;;;3.65;98.57;97782.09;5065060;27;128609;-70
2022/03/29 02:22:08;;;;;;;25.15;15.07;;;3.90;1.00;;;3.65;98.73;97782.09;5063477;27;118837;-72
2022/03/29 02:24:36;;;;;;;25.05;14.10;;;4.00;1.00;;;3.65;98.89;97774.03;5048699;27;115924;-69
2022/03/29 02:27:07;;;;;;;25.80;14.80;;;3.90;1.00;;;3.64;98.84;97780.50;5065171;27;130180;-70
2022/03/29 02:29:35;;;;;;;30.00;14.30;;;3.90;1.00;;;3.60;99.02;97774.97;5063072;27;129563;-69
2022/03/29 02:32:05;;;;;;;33.65;17.50;;;4.00;1.00;;;3.58;99.44;97777.94;5065089;27;118775;-70
2022/03/29 02:34:34;;;;;;;35.70;16.30;;;4.00;1.00;;;3.59;99.04;97784.88;5063372;27;116344;-70
2022/03/29 02:37:03;;;;;;;29.30;16.20;;;3.90;1.00;;;3.54;99.38;97770.81;5064592;27;129812;-68
2022/03/29 02:39:34;;;;;;;35.28;16.33;;;3.90;1.00;;;3.54;99.19;97771.59;5047868;27;128436;-70
2022/03/29 02:42:02;;;;;;;29.45;15.60;;;3.90;1.00;;;3.53;99.00;97770.00;5064965;27;117976;-69
2022/03/29 02:44:32;;;;;;;29.67;16.30;;;3.80;1.00;;;3.49;99.29;97769.06;5066072;27;116511;-69
2022/03/29 02:47:02;;;;;;;28.27;16.55;;;3.70;1.00;;;3.48;99.58;97778.19;5065378;27;130766;-69
2022/03/29 02:49:31;;;;;;;30.58;15.85;;;3.70;1.00;;;3.48;99.55;97777.41;5062230;27;129630;-69
2022/03/29 02:51:59;;;;;;;28.88;16.70;;;3.70;1.00;;;3.52;99.55;97773.81;5060939;27;119043;-70
2022/03/29 02:54:28;;;;;;;34.45;17.17;;;3.80;1.00;;;3.55;99.49;97781.25;5065052;27;115364;-70
2022/03/29 02:56:57;;;;;;;36.40;17.40;;;3.80;1.00;;;3.56;99.65;97774.78;5065766;27;129593;-71
2022/03/29 02:59:26;;;;;;;34.15;17.38;;;3.90;1.00;;;3.59;99.62;97779.50;5064130;27;128674;-71
2022/03/29 03:01:58;;;;;;;30.42;17.23;;;3.90;1.00;;;3.58;99.53;97780.63;5044856;27;118746;-70
2022/03/29 03:04:26;;;;;;;30.50;16.83;;;4.00;1.00;;;3.70;98.99;97779.25;5061464;27;116287;-69
2022/03/29 03:06:55;;;;;;;32.50;16.77;;;4.00;1.00;;;3.74;99.06;97788.25;5062183;27;129988;-72
2022/03/29 03:09:24;;;;;;;31.58;16.42;;;4.10;1.00;;;3.82;98.80;97792.09;5062214;27;130395;-72
2022/03/29 03:11:53;;;;;;;28.40;15.77;;;4.10;1.00;;;3.89;97.85;97798.59;5064293;27;117522;-71
2022/03/29 03:14:22;;;;;;;29.95;16.15;;;4.20;1.00;;;3.96;97.43;97793.59;5062428;27;116516;-69
2022/03/29 03:16:51;;;;;;;36.13;15.75;;;4.20;1.00;;;4.00;96.82;97801.81;5063744;27;128669;-71
2022/03/29 03:19:20;;;;;;;32.15;15.60;;;4.30;1.00;;;4.02;96.60;97786.22;5061644;27;129672;-69
2022/03/29 03:21:49;;;;;;;31.33;15.90;;;4.30;1.00;;;4.07;95.97;97788.75;5061017;27;119630;-71
2022/03/29 03:24:18;;;;;;;33.70;16.52;;;4.30;1.00;;;4.08;95.93;97790.34;5061634;27;120614;-70
2022/03/29 03:26:46;;;;;;;26.92;14.88;;;4.40;1.00;;;4.20;95.16;97787.03;5060703;27;129825;-73
2022/03/29 03:29:15;;;;;;;30.63;15.13;;;4.40;1.00;;;4.24;94.89;97792.56;5060706;27;130180;-69
2022/03/29 03:31:43;;;;;;;27.77;16.17;;;4.40;1.00;;;4.25;94.36;97794.16;5061360;27;121079;-70
2022/03/29 03:34:12;;;;;;;25.63;13.60;;;4.40;1.00;;;4.20;94.24;97803.16;5061007;27;122396;-73
2022/03/29 03:36:42;;;;;;;25.13;14.25;;;4.40;1.00;;;4.27;93.80;97798.13;5063629;27;129362;-70
2022/03/29 03:39:11;;;;;;;24.50;14.00;;;4.50;1.00;;;4.36;93.34;97794.69;5059279;27;129488;-69
2022/03/29 03:41:40;;;;;;;27.45;13.13;;;4.50;1.00;;;4.32;92.51;97806.03;5062130;27;120632;-72
2022/03/29 03:44:11;;;;;;;29.27;13.85;;;4.50;1.00;;;4.38;92.09;97797.84;5062793;27;119216;-71
2022/03/29 03:46:39;;;;;;;26.25;12.95;;;4.50;1.00;;;4.42;92.02;97798.81;5060342;27;129859;-71
2022/03/29 03:49:08;;;;;;;25.38;13.60;;;4.50;1.00;;;4.40;91.73;97798.34;5060464;27;130285;-72
2022/03/29 03:51:36;;;;;;;22.13;12.80;;;4.50;1.00;;;4.44;91.05;97796.59;5045612;27;119718;-69
2022/03/29 03:54:06;;;;;;;24.13;11.85;;;4.60;1.00;;;4.40;90.91;97795.66;5045307;27;118892;-73
2022/03/29 03:56:35;;;;;;;24.05;12.65;;;4.60;1.00;;;4.43;91.07;97795.03;5059093;27;129867;-69
2022/03/29 03:59:04;;;;;;;24.27;12.63;;;4.60;1.00;;;4.40;90.60;97792.97;5060664;27;129782;-72
2022/03/29 04:01:32;;;;;;;22.05;11.85;;;4.60;1.00;;;4.48;90.37;97792.19;5060409;27;119469;-71
2022/03/29 04:04:01;;;;;;;27.10;12.63;;;4.60;1.00;;;4.41;90.09;97807.94;5062595;27;119353;-73
2022/03/29 04:06:29;;;;;;;23.30;11.90;;;4.50;1.00;;;4.52;89.81;97798.53;5060025;27;130709;-67
2022/03/29 04:08:58;;;;;;;21.92;12.40;;;4.60;1.00;;;4.53;89.82;97793.94;5060184;27;129443;-66
2022/03/29 04:11:28;;;;;;;23.35;12.25;;;4.60;1.00;;;4.58;90.15;97789.22;5060659;27;120077;-65
2022/03/29 04:13:58;;;;;;;24.98;11.93;;;4.60;1.00;;;4.63;89.98;97794.44;5059162;27;119312;-65
2022/03/29 04:16:28;;;;;;;24.20;13.50;;;4.70;1.00;;;4.70;89.97;97793.94;5062306;27;129714;-65
2022/03/29 04:18:56;;;;;;;21.42;12.45;;;4.70;1.00;;;4.72;89.88;97790.94;5051669;27;130032;-66
2022/03/29 04:21:25;;;;;;;22.08;11.98;;;4.70;1.00;;;4.79;89.27;97785.91;5037069;27;122339;-68
2022/03/29 04:23:53;;;;;;;23.95;11.73;;;4.80;1.00;;;4.79;88.74;97791.28;5041309;27;122050;-71
2022/03/29 04:26:22;;;;;;;24.55;12.23;;;4.80;1.00;;;4.79;88.48;97791.28;5038160;27;130638;-71
2022/03/29 04:28:52;;;;;;;21.13;11.90;;;4.80;1.00;;;4.88;88.05;97778.66;5039217;27;129331;-67
2022/03/29 04:31:21;;;;;;;19.63;11.23;;;4.80;1.00;;;4.84;88.19;97788.44;5039452;27;119580;-72
2022/03/29 04:33:50;;;;;;;24.08;12.25;;;4.80;1.00;;;4.88;88.05;97794.78;5039374;27;119659;-66
2022/03/29 04:36:18;;;;;;;25.63;12.23;;;4.90;1.00;;;4.96;87.64;97796.66;5053707;27;130745;-65
2022/03/29 04:38:47;;;;;;;23.67;12.35;;;4.90;1.00;;;5.02;87.52;97797.31;5039463;27;129954;-66
2022/03/29 04:41:15;;;;;;;22.52;11.80;;;4.90;1.00;;;5.08;87.14;97787.16;5039511;27;119859;-63
2022/03/29 04:43:44;;;;;;;24.15;11.77;;;5.00;1.00;;;5.14;86.60;97791.28;5041298;27;118742;-63
2022/03/29 04:46:13;;;;;;;25.15;11.73;;;5.00;1.00;;;5.20;86.25;97798.09;5037928;27;129833;-68
2022/03/29 04:48:42;;;;;;;21.02;11.63;;;5.10;1.00;;;5.22;86.07;97798.56;5038686;27;129388;-62
2022/03/29 04:51:12;;;;;;;24.50;12.63;;;5.10;1.00;;;5.35;85.65;97794.13;5039701;27;120034;-63
2022/03/29 04:53:40;;;;;;;23.10;11.82;;;5.20;1.00;;;5.41;85.30;97790.16;5039318;27;119913;-63
2022/03/29 04:56:09;;;;;;;22.23;11.52;;;5.20;1.00;;;5.45;85.04;97790.31;5038647;27;129872;-66
2022/03/29 04:58:38;;;;;;;22.48;11.63;;;5.20;1.00;;;5.50;84.51;97790.13;5039118;27;130253;-63
2022/03/29 05:01:06;;;;;;;23.27;12.88;;;5.20;1.00;;;5.48;84.74;97803.91;5040956;27;118497;-67
2022/03/29 05:03:36;;;;;;;24.15;12.15;;;5.10;1.00;;;5.40;85.13;97789.34;5038766;27;119062;-68
2022/03/29 05:06:05;;;;;;;24.25;11.93;;;5.10;1.00;;;5.42;85.15;97790.94;5038756;27;129735;-68
2022/03/29 05:08:33;;;;;;;22.20;11.32;;;5.20;1.00;;;5.43;85.58;97792.53;5036180;27;129764;-67
2022/03/29 05:11:02;;;;;;;24.25;12.38;;;5.20;1.00;;;5.43;85.66;97787.16;5048058;27;122968;-69
2022/03/29 05:13:30;;;;;;;21.55;12.35;;;5.20;1.00;;;5.59;85.27;97774.75;5040257;27;123686;-67
2022/03/29 05:15:59;;;;;;;22.60;12.55;;;5.40;1.00;;;5.67;84.72;97781.25;5040022;27;129959;-68
2022/03/29 05:18:28;;;;;;;24.33;13.23;;;5.30;1.00;;;5.77;84.21;97772.81;5038537;27;130838;-65
2022/03/29 05:20:58;;;;;;;22.35;11.82;;;5.40;1.00;;;5.92;83.45;97787.66;5040944;27;118474;-66
2022/03/29 05:23:26;;;;;;;24.23;13.18;;;5.40;1.00;;;6.06;82.97;97782.09;5057565;27;119298;-66
2022/03/29 05:25:55;;;;;;;21.85;12.90;;;5.50;1.00;;;6.08;82.60;97791.44;5038135;27;130114;-67
2022/03/29 05:28:23;;;;;;;23.70;12.00;;;5.60;1.00;;;6.25;82.11;97795.16;5038838;27;130014;-67
2022/03/29 05:30:51;;;;;;;20.83;12.13;;;5.80;1.00;;;6.15;82.01;97788.22;5038564;27;120500;-68
2022/03/29 05:33:20;;;;;;;23.48;12.23;;;5.50;1.00;;;6.18;82.01;97794.88;5038465;27;120067;-69
2022/03/29 05:35:48;;;;;;;20.15;11.93;;;5.60;1.00;;;6.29;82.02;97790.69;5039109;27;129627;-66
2022/03/29 05:38:18;;;;;;;25.02;12.15;;;5.70;1.00;;;6.28;81.39;97783.75;5057090;27;129672;-67
2022/03/29 05:40:47;;;;;;;21.55;11.50;;;5.60;1.00;;;6.36;80.66;97791.00;5040713;27;119254;-69
2022/03/29 05:43:17;;;;;;;20.83;12.05;;;5.70;1.00;;;6.47;80.01;97784.09;5038354;27;120024;-70
2022/03/29 05:48:51;;;;;;;25.55;12.15;;;5.80;1.00;;;6.57;80.00;97779.44;5023330;27;128666;-65
2022/03/29 05:48:52;;;;;;;27.77;11.57;;;6.10;1.00;;;6.41;79.75;97765.75;5038199;27;129800;-66
2022/03/29 05:51:23;;;;;;;23.17;11.03;;;5.90;1.00;;;6.24;80.85;97767.44;5040470;27;118590;-65
2022/03/29 05:53:55;;;;;;;19.77;11.60;;;5.80;1.00;;;6.31;80.09;97775.03;5041775;27;122010;-69
2022/03/29 05:56:24;;;;;;;24.15;12.05;;;5.80;1.00;;;6.34;80.25;97766.25;5038062;27;129686;-68
2022/03/29 05:58:52;;;;;;;20.98;12.30;;;5.80;1.00;;;6.44;80.25;97773.97;5036804;27;129828;-67
2022/03/29 06:01:21;;;;;;;20.92;11.88;;;5.90;1.00;;;6.64;79.75;97768.94;5037167;27;122520;-68
2022/03/29 06:03:50;;;;;;;25.25;12.52;;;6.00;1.00;;;6.79;79.09;97781.84;5038383;27;122733;-69
2022/03/29 06:06:19;;;;;;;88.18;45.80;;;6.00;1.00;;;7.10;77.91;97777.16;5037938;27;130032;-69
2022/03/29 06:08:47;;;;;;;68.18;38.50;;;6.20;1.00;;;6.92;78.33;97779.19;5037692;27;129818;-68
2022/03/29 06:11:17;;;;;;;44.78;26.48;;;6.00;1.00;;;7.17;77.55;97780.13;5057161;27;119224;-71
2022/03/29 06:13:46;;;;;;;26.38;12.50;;;6.30;1.00;;;7.16;77.48;97773.16;5039351;27;118868;-69
2022/03/29 06:16:14;;;;;;;24.60;13.50;;;6.40;1.00;;;7.05;77.79;97782.78;5040040;27;129626;-69
2022/03/29 06:18:43;;;;;;;22.63;12.63;;;6.40;1.00;;;7.12;77.75;97773.03;5038290;27;129470;-68
2022/03/29 06:21:11;;;;;;;19.85;12.13;;;6.30;1.00;;;6.86;78.39;97788.59;5037989;27;119945;-69
2022/03/29 06:23:40;;;;;;;23.27;13.63;;;6.10;1.00;;;6.74;78.82;97783.94;5038462;27;119543;-70
2022/03/29 06:26:08;;;;;;;27.95;12.57;;;6.10;1.00;;;6.74;79.22;97787.41;5053930;27;130253;-70
2022/03/29 06:28:38;;;;;;;35.88;13.38;;;6.10;1.00;;;7.12;78.29;97773.03;5040871;27;130023;-67
2022/03/29 06:31:07;;;;;;;22.45;11.25;;;6.50;1.00;;;7.32;76.47;97781.41;5041764;27;119495;-67
2022/03/29 06:33:36;;;;;;;22.77;11.43;;;6.60;1.00;;;7.59;74.61;97771.16;5043069;27;118951;-68
2022/03/29 06:36:05;;;;;;;18.00;11.18;;;6.80;1.00;;;7.72;74.39;97780.88;5026092;27;129676;-66
2022/03/29 06:38:33;;;;;;;21.33;11.60;;;6.80;1.00;;;7.96;73.79;97776.63;5041141;27;129403;-66
2022/03/29 06:41:02;;;;;;;20.88;11.25;;;7.00;1.00;;;7.92;73.48;97788.09;5042012;27;119364;-68
2022/03/29 06:43:34;;;;;;;23.90;12.95;;;6.90;1.00;;;7.68;74.96;97772.66;5052877;27;119740;-68
2022/03/29 06:46:07;;;;;;;24.02;14.07;;;6.60;1.00;;;8.01;73.76;97768.28;5060793;27;130238;-65
2022/03/29 06:48:36;;;;;;;24.15;13.45;;;6.90;1.00;;;7.86;73.92;97767.06;5059968;27;129351;-67
2022/03/29 06:51:04;;;;;;;20.17;11.93;;;6.70;1.00;;;7.47;74.62;97772.69;5060486;27;122230;-72
2022/03/29 06:53:33;;;;;;;28.25;13.80;;;6.40;1.00;;;7.24;76.42;97763.41;5063748;27;121691;-67
2022/03/29 06:56:02;;;;;;;19.15;12.57;;;6.40;1.00;;;7.78;74.11;97763.31;5061003;27;129739;-68
2022/03/29 06:58:30;;;;;;;25.10;11.90;;;6.90;1.00;;;8.21;72.63;97766.63;5061085;27;130043;-67
2022/03/29 07:00:59;;;;;;;23.33;13.32;;;7.30;1.00;;;8.20;70.73;97760.44;5061391;27;119643;-67
2022/03/29 07:03:29;;;;;;;19.83;11.90;;;7.10;1.00;;;8.09;71.09;97786.34;5061400;27;119295;-68
2022/03/29 07:05:59;;;;;;;22.58;11.77;;;7.10;1.00;;;8.06;71.61;97776.19;5060943;27;130228;-71
2022/03/29 07:08:27;;;;;;;20.17;11.63;;;7.20;1.00;;;8.27;70.82;97787.69;5061286;27;129459;-68
2022/03/29 07:13:50;;;;;;;16.98;10.82;;;6.90;1.00;;;7.61;72.47;97777.03;5048804;27;119356;-70
2022/03/29 07:16:21;;;;;;;20.65;10.60;;;6.60;1.00;;;7.50;71.90;97788.22;5060461;27;130436;-69
2022/03/29 07:18:54;;;;;;;29.63;10.93;;;6.50;1.00;;;7.43;71.83;97779.88;5060553;27;129462;-70
2022/03/29 07:21:23;;;;;;;24.20;12.25;;;6.60;1.00;;;7.87;70.67;97791.03;5051652;27;119952;-67
2022/03/29 07:23:52;;;;;;;23.23;10.35;;;6.80;1.00;;;8.18;68.34;97784.31;5040743;27;119263;-70
2022/03/29 07:26:20;;;;;;;16.67;10.10;;;6.80;1.00;;;8.64;66.46;97781.50;5041513;27;133718;-70
2022/03/29 07:28:48;;;;;;;20.48;11.25;;;7.20;1.00;;;8.90;65.95;97775.69;5040037;27;129624;-68
2022/03/29 07:31:17;;;;;;;19.05;10.70;;;7.50;1.00;;;8.56;66.07;97783.19;5039364;27;119692;-69
2022/03/29 07:33:45;;;;;;;20.58;10.50;;;7.50;1.00;;;8.12;67.54;97782.16;5039784;27;118738;-68
2022/03/29 07:36:16;;;;;;;18.13;10.38;;;7.20;1.00;;;8.07;68.40;97769.66;5039754;27;130572;-68
2022/03/29 07:38:45;;;;;;;21.70;10.07;;;7.20;1.00;;;8.26;67.67;97774.53;5039193;27;129499;-68
2022/03/29 07:41:14;;;;;;;16.77;8.65;;;7.40;1.00;;;8.36;65.35;97776.75;5041039;27;122811;-70
2022/03/29 07:43:43;;;;;;;15.57;8.10;;;7.10;1.00;;;8.14;63.98;97788.81;5043242;27;122455;-69
2022/03/29 07:46:11;;;;;;;17.27;9.52;;;6.90;1.00;;;8.30;65.54;97790.84;5050369;27;130386;-70
2022/03/29 07:48:40;;;;;;;16.92;9.32;;;7.10;1.00;;;8.43;64.42;97789.69;5040710;27;130493;-70
2022/03/29 07:51:10;;;;;;;14.68;8.55;;;7.10;1.00;;;8.23;66.33;97786.00;5040451;27;119584;-74
2022/03/29 07:53:41;;;;;;;18.90;9.15;;;7.20;1.00;;;8.51;65.46;97777.22;5041949;27;118466;-69
2022/03/29 07:56:10;;;;;;;16.35;8.75;;;7.40;1.00;;;8.19;63.75;97785.09;5040032;27;130113;-71
2022/03/29 07:58:38;;;;;;;18.05;8.48;;;7.00;1.00;;;8.09;64.70;97772.81;5047477;27;129551;-69
2022/03/29 08:01:07;;;;;;;16.08;8.70;;;7.20;1.00;;;7.83;64.38;97784.72;5054376;27;119589;-70
2022/03/29 08:03:35;;;;;;;13.98;8.32;;;6.90;1.00;;;7.70;65.22;97802.03;5040247;27;119728;-69
2022/03/29 08:06:05;;;;;;;16.75;8.35;;;6.90;1.00;;;7.53;65.90;97797.59;5038613;27;129833;-69
2022/03/29 08:08:34;;;;;;;13.10;8.07;;;6.70;1.00;;;7.76;65.72;97789.88;5039654;27;129398;-71
2022/03/29 08:11:05;;;;;;;20.20;8.82;;;6.90;1.00;;;7.69;65.76;97795.03;5042005;27;118824;-68
2022/03/29 08:13:33;;;;;;;21.33;9.20;;;6.90;1.00;;;7.76;66.29;97773.69;5040072;27;119624;-67
2022/03/29 08:16:02;;;;;;;19.88;8.45;;;7.00;1.00;;;8.39;64.15;97783.41;5041173;27;129903;-67
2022/03/29 08:18:32;;;;;;;16.05;7.88;;;7.50;1.00;;;8.93;62.79;97785.84;5039405;27;130032;-72
2022/03/29 08:21:01;;;;;;;16.10;7.53;;;8.00;1.00;;;9.10;59.01;97794.78;5041954;27;119228;-68
2022/03/29 08:23:30;;;;;;;14.27;6.85;;;8.00;1.00;;;9.23;57.76;97790.16;5039866;27;119945;-68
2022/03/29 08:25:59;;;;;;;11.65;6.38;;;7.90;1.00;;;9.69;55.24;97780.56;5041156;27;128930;-68
2022/03/29 08:28:29;;;;;;;13.30;6.57;;;8.40;1.00;;;9.53;55.17;97782.44;5039377;27;130132;-69
2022/03/29 08:30:57;;;;;;;14.38;7.35;;;8.30;1.00;;;9.30;55.78;97780.31;5038331;27;122059;-69
2022/03/29 08:33:25;;;;;;;12.30;6.78;;;8.20;1.00;;;8.86;55.25;97788.31;5042139;27;122534;-71
2022/03/29 08:35:57;;;;;;;16.67;6.90;;;7.80;1.00;;;8.77;55.23;97787.66;5041330;27;129140;-69
2022/03/29 08:38:29;;;;;;;12.88;6.55;;;7.90;1.00;;;8.72;55.22;97780.56;5042273;27;128566;-69
2022/03/29 08:41:00;;;;;;;14.77;6.65;;;7.60;1.00;;;8.90;54.15;97777.63;5060174;27;120964;-69
2022/03/29 08:43:32;;;;;;;13.52;5.53;;;7.90;1.00;;;9.07;53.57;97779.25;5061969;27;119863;-70
2022/03/29 08:46:01;;;;;;;12.55;5.93;;;7.80;1.00;;;9.41;53.45;97766.25;5062668;27;129923;-69
2022/03/29 08:48:31;;;;;;;14.40;6.05;;;8.00;1.00;;;9.83;50.29;97784.75;5058974;27;129462;-69
2022/03/29 08:51:02;;;;;;;16.98;5.80;;;8.30;1.00;;;10.16;47.85;97767.38;5061644;27;118961;-69
2022/03/29 08:53:30;;;;;;;11.02;4.70;;;8.50;1.00;;;10.22;47.17;97768.69;5059480;27;119530;-69
2022/03/29 08:55:59;;;;;;;20.52;5.47;;;8.50;1.00;;;10.49;46.02;97760.84;5059816;27;130415;-69
2022/03/29 08:58:29;;;;;;;10.10;4.97;;;8.90;1.00;;;10.55;45.66;97778.38;5058963;27;129918;-70
2022/03/29 09:00:59;;;;;;;14.82;5.47;;;8.80;1.00;;;10.50;45.95;97765.91;5059433;27;121071;-69
2022/03/29 09:03:27;;;;;;;12.07;5.35;;;8.90;1.00;;;10.26;46.89;97772.28;5059575;27;119999;-71
2022/03/29 09:06:07;;;;;;;9.85;5.47;;;8.50;1.00;;;10.01;47.04;97777.09;5059401;27;130511;-71
2022/03/29 09:08:46;;;;;;;10.75;5.20;;;8.30;1.00;;;9.85;46.75;97785.22;5057605;27;129039;-67
2022/03/29 09:11:16;;;;;;;10.95;5.30;;;8.40;1.00;;;10.61;46.24;97782.38;5044503;27;119013;-68
2022/03/29 09:13:44;;;;;;;10.20;5.32;;;9.20;1.00;;;10.59;44.24;97779.25;5059834;27;119988;-67
2022/03/29 09:19:09;;;;;;;11.77;5.27;;;9.40;1.00;;;9.17;46.91;97800.41;5069481;27;1615213;-69
2022/03/29 09:21:42;;;;;;;8.65;4.13;;;7.90;1.00;;;8.54;49.26;97792.75;5101848;27;113591;-70
2022/03/29 09:24:14;;;;;;;15.95;5.05;;;7.50;1.00;;;8.81;52.05;97783.16;5083120;27;128390;-68
2022/03/29 09:26:44;;;;;;;6.95;3.45;;;7.90;1.00;;;8.38;50.35;97781.81;5083094;27;128449;-72
2022/03/29 09:29:15;;;;;;;8.40;3.92;;;7.30;1.00;;;8.03;53.77;97796.56;5098745;27;118630;-69
2022/03/29 09:31:44;;;;;;;8.75;3.90;;;7.00;1.00;;;7.65;53.63;97805.72;5099055;27;113671;-71
2022/03/29 09:34:17;;;;;;;12.15;3.35;;;6.90;1.00;;;7.37;52.94;97811.69;5098373;27;130553;-70
2022/03/29 09:36:50;;;;;;;7.60;2.90;;;6.80;1.00;;;7.36;54.36;97785.81;5101388;27;129278;-67
2022/03/29 09:39:39;;;;;;;8.48;2.80;;;6.80;1.00;;;6.90;54.75;97819.19;5083376;27;118476;-68
2022/03/29 09:42:12;;;;;;;6.18;2.67;;;6.40;1.00;;;7.15;55.17;97812.03;5099270;27;113785;-66
2022/03/29 09:44:48;;;;;;;7.93;2.72;;;6.60;1.00;;;7.33;52.09;97816.16;5082929;27;129354;-68
2022/03/29 09:47:20;;;;;;;10.55;4.00;;;6.60;1.00;;;8.09;51.77;97791.72;5081921;27;130116;-68
2022/03/29 09:49:58;;;;;;;6.15;3.33;;;7.10;1.00;;;8.25;48.65;97799.97;5077870;27;119328;-69
2022/03/29 09:52:29;;;;;;;10.52;3.42;;;7.20;1.00;;;8.14;49.66;97813.13;5078174;27;114226;-70
2022/03/29 09:55:14;;;;;;;7.85;3.60;;;7.20;1.00;;;8.47;48.26;97809.56;5058667;27;129611;-70
2022/03/29 09:57:46;;;;;;;6.75;2.90;;;7.50;1.00;;;8.42;48.53;97802.44;5077210;27;129671;-71
2022/03/29 10:00:18;;;;;;;10.07;4.00;;;7.40;1.00;;;8.60;48.56;97805.72;5077674;27;118615;-69
2022/03/29 10:02:49;;;;;;;8.18;2.88;;;7.50;1.00;;;8.92;47.78;97800.47;5077981;27;113716;-72
2022/03/29 10:05:20;;;;;;;8.00;3.65;;;7.50;1.00;;;9.48;46.72;97810.56;5061954;27;129600;-67
2022/03/29 10:10:45;;;;;;;9.43;3.30;;;8.00;1.00;;;8.96;45.33;97809.50;5044305;27;118242;-70
2022/03/29 10:13:15;;;;;;;8.48;2.83;;;7.80;1.00;;;8.25;46.11;97810.75;5077722;27;114490;-66
2022/03/29 10:15:45;;;;;;;7.32;2.30;;;7.30;1.00;;;7.77;47.19;97796.84;5044775;27;129239;-64
2022/03/29 10:18:14;;;;;;;6.07;2.45;;;7.00;1.00;;;7.87;48.61;97823.44;5078348;27;129702;-69
2022/03/29 10:20:45;;;;;;;5.68;2.30;;;6.90;1.00;;;8.37;47.11;97826.22;5077294;27;118280;-69
2022/03/29 10:23:18;;;;;;;7.55;2.72;;;7.20;1.00;;;8.22;46.88;97850.06;5077817;27;114097;-68
2022/03/29 10:25:46;;;;;;;6.72;2.80;;;7.00;1.00;;;8.40;46.71;97817.44;5077287;27;130990;-70
2022/03/29 10:28:15;;;;;;;8.52;3.30;;;7.20;1.00;;;8.69;45.28;97829.16;5076266;27;130207;-70
2022/03/29 10:30:44;;;;;;;10.18;3.30;;;7.40;1.00;;;8.93;43.92;97828.34;5048171;27;118252;-69
2022/03/29 10:33:22;;;;;;;5.25;2.35;;;7.60;1.00;;;8.79;43.57;97828.69;5063743;27;113658;-72
2022/03/29 10:36:07;;;;;;;5.95;2.83;;;7.50;1.00;;;8.90;42.87;97846.03;5062951;27;130555;-70
2022/03/29 10:38:58;;;;;;;4.85;1.70;;;7.40;1.00;;;8.37;42.05;97826.22;5047238;27;129398;-69
2022/03/29 10:41:52;;;;;;;3.28;1.67;;;7.00;1.00;;;8.82;42.49;97828.03;5063459;27;118588;-70
2022/03/29 10:44:22;;;;;;;6.22;2.63;;;7.50;1.00;;;9.02;42.74;97825.50;5048366;27;113272;-70
2022/03/29 10:46:52;;;;;;;5.35;2.40;;;7.30;1.00;;;9.38;43.59;97821.09;5062897;27;129905;-70
2022/03/29 10:49:24;;;;;;;6.90;3.13;;;7.60;1.00;;;9.84;43.19;97821.56;5047988;27;129397;-68